Pinnacles, California
Current Conditions -  °F | °C
As of 2:53 PM on Thursday 20 Nov 2014 (Local Time) from KSNS Reporting Station
Light Rain Light Rain  
Wind Chill: 62°   Ceiling: 4700
Heat Index: 62°   Visibility: 7mi
Dew Point: 53°   Wind: 5mph
Humidity: 72%   Direction: 120°ESE
Pressure: 30.01"   Gusts: NA
Location:  36.4824°N, 120.948°W
Report Text: KSNS 202253Z 12004KT 7SM -RA FEW024 BKN047 OVC075 17/12 A3001 RMK AO2 RAB41 PRESFR SLP171 P0001 T01670117
Loading
Personal Weather Stations






























Interactive Weather Map New forecast layout! Learn more

10-Day Weather Forecast

Advertisements
Track Severe Weather on mobile